Enter the Airport ICAO Code

Search by Airport or City

Current Weather

SUMU | Carrasco Gral. Cesáreo L. Berisso International Airport

Montevideo, Uruguay

Last Update 50 Minutes Ago

Clear Sky

Temperature of 18 ºC

Moderate Winds from East

Temperature

18 ºC

Dew Point Temperature

14 ºC

Relative Humidity

77.57 %

Wind Direction

East (110º, Without Significant Variations)

Wind Velocity

24 km/h (13 kt)

Gusts

None

Visibility

No Significant Reductions

Sea Level Pressure

1018 hPa (Hectopascals)

Layers of Clouds

None

METAR SUMU 202200Z 11013KT CAVOK 18/14 Q1018 NOSIG

Weather Forecast

SUMU | Carrasco Gral. Cesáreo L. Berisso International Airport

Montevideo, Uruguay

Forecast valid for the next 19 Hours

From now on it is expected:

Sky with Few Clouds

Moderate Winds from SouthEast

From now on it is expected 1 hour with intermittent periods of:

Partly Cloudy Sky

Moderate Winds from SouthEast with Gusts

In 1 to 5 hours it is expected the begining of:

Light to Moderate Winds from North

Maximum Temperature

24 ºC in 19 Hours

Minimum Temperature

12 ºC in 11 Hours

TAF SUMU 201730Z 2018/2118 12015KT 9999 FEW025 TX24/2118Z TN12/2110Z PROB40 TEMPO 2018/2100 12015G25KT 9999 SCT025 BECMG 2100/2104 02005KT